sensor_id;sensor_type;location;lat;lon;timestamp;P1;durP1;ratioP1;P2;durP2;ratioP2
22144;SDS011;11238;48.730;11.566;2023-02-11T00:00:47;50.10;;;24.85;;
22144;SDS011;11238;48.730;11.566;2023-02-11T00:03:13;45.20;;;23.90;;
22144;SDS011;11238;48.730;11.566;2023-02-11T00:05:38;46.10;;;24.40;;
22144;SDS011;11238;48.730;11.566;2023-02-11T00:08:04;46.38;;;23.88;;
22144;SDS011;11238;48.730;11.566;2023-02-11T00:10:30;47.28;;;25.15;;
22144;SDS011;11238;48.730;11.566;2023-02-11T00:12:56;57.20;;;25.40;;
22144;SDS011;11238;48.730;11.566;2023-02-11T00:15:21;53.97;;;25.10;;
22144;SDS011;11238;48.730;11.566;2023-02-11T00:17:47;53.38;;;26.35;;
22144;SDS011;11238;48.730;11.566;2023-02-11T00:20:13;46.78;;;25.05;;
22144;SDS011;11238;48.730;11.566;2023-02-11T00:22:39;46.30;;;24.15;;
22144;SDS011;11238;48.730;11.566;2023-02-11T00:25:05;50.03;;;25.42;;
22144;SDS011;11238;48.730;11.566;2023-02-11T00:27:32;51.83;;;26.30;;
22144;SDS011;11238;48.730;11.566;2023-02-11T00:29:58;53.72;;;24.92;;
22144;SDS011;11238;48.730;11.566;2023-02-11T00:32:28;53.28;;;25.83;;
22144;SDS011;11238;48.730;11.566;2023-02-11T00:35:16;51.40;;;24.52;;
22144;SDS011;11238;48.730;11.566;2023-02-11T00:37:42;52.05;;;25.85;;
22144;SDS011;11238;48.730;11.566;2023-02-11T00:40:09;51.63;;;25.55;;
22144;SDS011;11238;48.730;11.566;2023-02-11T00:42:35;47.58;;;24.42;;
22144;SDS011;11238;48.730;11.566;2023-02-11T00:45:01;55.58;;;25.73;;
22144;SDS011;11238;48.730;11.566;2023-02-11T00:47:28;50.70;;;25.15;;
22144;SDS011;11238;48.730;11.566;2023-02-11T00:49:54;50.15;;;25.20;;
22144;SDS011;11238;48.730;11.566;2023-02-11T00:52:20;51.30;;;26.75;;
22144;SDS011;11238;48.730;11.566;2023-02-11T00:54:46;50.40;;;25.05;;
22144;SDS011;11238;48.730;11.566;2023-02-11T00:57:12;51.50;;;25.25;;
22144;SDS011;11238;48.730;11.566;2023-02-11T00:59:38;55.28;;;27.00;;
22144;SDS011;11238;48.730;11.566;2023-02-11T01:02:04;51.28;;;25.20;;
22144;SDS011;11238;48.730;11.566;2023-02-11T01:04:30;56.83;;;27.35;;
22144;SDS011;11238;48.730;11.566;2023-02-11T01:06:56;52.55;;;26.80;;
22144;SDS011;11238;48.730;11.566;2023-02-11T01:09:24;61.92;;;27.67;;
22144;SDS011;11238;48.730;11.566;2023-02-11T01:11:49;61.20;;;27.13;;
22144;SDS011;11238;48.730;11.566;2023-02-11T01:14:15;55.75;;;28.23;;
22144;SDS011;11238;48.730;11.566;2023-02-11T01:16:41;51.10;;;26.42;;
22144;SDS011;11238;48.730;11.566;2023-02-11T01:19:07;59.78;;;28.33;;
22144;SDS011;11238;48.730;11.566;2023-02-11T01:21:32;57.67;;;28.85;;
22144;SDS011;11238;48.730;11.566;2023-02-11T01:23:58;52.55;;;27.55;;
22144;SDS011;11238;48.730;11.566;2023-02-11T01:26:24;53.38;;;27.58;;
22144;SDS011;11238;48.730;11.566;2023-02-11T01:28:50;53.63;;;27.90;;
22144;SDS011;11238;48.730;11.566;2023-02-11T01:31:16;54.28;;;26.23;;
22144;SDS011;11238;48.730;11.566;2023-02-11T01:33:42;54.58;;;27.30;;
22144;SDS011;11238;48.730;11.566;2023-02-11T01:36:09;48.10;;;25.42;;
22144;SDS011;11238;48.730;11.566;2023-02-11T01:38:35;48.53;;;23.90;;
22144;SDS011;11238;48.730;11.566;2023-02-11T01:41:24;46.72;;;23.75;;
22144;SDS011;11238;48.730;11.566;2023-02-11T01:43:50;53.22;;;24.77;;
22144;SDS011;11238;48.730;11.566;2023-02-11T01:48:58;53.55;;;26.00;;
22144;SDS011;11238;48.730;11.566;2023-02-11T01:51:36;47.33;;;23.77;;
22144;SDS011;11238;48.730;11.566;2023-02-11T01:54:06;51.92;;;23.55;;
22144;SDS011;11238;48.730;11.566;2023-02-11T01:56:56;50.15;;;24.00;;
22144;SDS011;11238;48.730;11.566;2023-02-11T02:02:31;49.80;;;23.17;;
22144;SDS011;11238;48.730;11.566;2023-02-11T02:05:46;52.10;;;23.38;;
22144;SDS011;11238;48.730;11.566;2023-02-11T02:10:57;60.15;;;26.58;;
22144;SDS011;11238;48.730;11.566;2023-02-11T02:13:26;55.33;;;25.27;;
22144;SDS011;11238;48.730;11.566;2023-02-11T02:15:55;49.38;;;23.85;;
22144;SDS011;11238;48.730;11.566;2023-02-11T02:27:07;51.38;;;24.83;;
22144;SDS011;11238;48.730;11.566;2023-02-11T02:30:14;58.35;;;27.35;;
22144;SDS011;11238;48.730;11.566;2023-02-11T02:35:36;52.42;;;24.33;;
22144;SDS011;11238;48.730;11.566;2023-02-11T02:43:19;51.40;;;24.02;;
22144;SDS011;11238;48.730;11.566;2023-02-11T02:45:46;62.70;;;27.02;;
22144;SDS011;11238;48.730;11.566;2023-02-11T02:51:00;58.80;;;26.45;;
22144;SDS011;11238;48.730;11.566;2023-02-11T02:54:00;60.00;;;26.52;;
22144;SDS011;11238;48.730;11.566;2023-02-11T03:05:07;53.08;;;26.35;;
22144;SDS011;11238;48.730;11.566;2023-02-11T03:10:29;51.20;;;25.73;;
22144;SDS011;11238;48.730;11.566;2023-02-11T03:12:57;50.42;;;25.23;;
22144;SDS011;11238;48.730;11.566;2023-02-11T03:15:24;56.75;;;25.80;;
22144;SDS011;11238;48.730;11.566;2023-02-11T03:17:55;54.53;;;26.77;;
22144;SDS011;11238;48.730;11.566;2023-02-11T03:20:24;50.75;;;24.52;;
22144;SDS011;11238;48.730;11.566;2023-02-11T03:22:57;58.72;;;27.35;;
22144;SDS011;11238;48.730;11.566;2023-02-11T03:25:28;49.65;;;24.40;;
22144;SDS011;11238;48.730;11.566;2023-02-11T03:28:02;52.90;;;25.83;;
22144;SDS011;11238;48.730;11.566;2023-02-11T03:30:48;53.15;;;26.40;;
22144;SDS011;11238;48.730;11.566;2023-02-11T03:33:26;55.53;;;25.55;;
22144;SDS011;11238;48.730;11.566;2023-02-11T03:35:59;58.30;;;26.15;;
22144;SDS011;11238;48.730;11.566;2023-02-11T03:38:33;52.90;;;26.00;;
22144;SDS011;11238;48.730;11.566;2023-02-11T03:41:03;54.42;;;27.55;;
22144;SDS011;11238;48.730;11.566;2023-02-11T03:43:42;59.72;;;27.33;;
22144;SDS011;11238;48.730;11.566;2023-02-11T03:46:12;53.88;;;25.85;;
22144;SDS011;11238;48.730;11.566;2023-02-11T03:48:48;59.92;;;27.38;;
22144;SDS011;11238;48.730;11.566;2023-02-11T03:51:16;60.70;;;27.83;;
22144;SDS011;11238;48.730;11.566;2023-02-11T03:53:45;59.03;;;27.83;;
22144;SDS011;11238;48.730;11.566;2023-02-11T03:56:13;52.65;;;24.83;;
22144;SDS011;11238;48.730;11.566;2023-02-11T03:58:45;57.13;;;25.42;;
22144;SDS011;11238;48.730;11.566;2023-02-11T04:01:13;53.65;;;26.27;;
22144;SDS011;11238;48.730;11.566;2023-02-11T04:03:39;58.00;;;26.85;;
22144;SDS011;11238;48.730;11.566;2023-02-11T04:06:06;60.38;;;27.55;;
22144;SDS011;11238;48.730;11.566;2023-02-11T04:08:32;52.67;;;25.75;;
22144;SDS011;11238;48.730;11.566;2023-02-11T04:10:58;58.70;;;27.00;;
22144;SDS011;11238;48.730;11.566;2023-02-11T04:13:27;57.58;;;27.17;;
22144;SDS011;11238;48.730;11.566;2023-02-11T04:15:53;58.67;;;28.80;;
22144;SDS011;11238;48.730;11.566;2023-02-11T04:18:20;63.83;;;29.10;;
22144;SDS011;11238;48.730;11.566;2023-02-11T04:20:45;67.15;;;28.92;;
22144;SDS011;11238;48.730;11.566;2023-02-11T04:23:12;62.65;;;30.35;;
22144;SDS011;11238;48.730;11.566;2023-02-11T04:25:38;64.57;;;30.17;;
22144;SDS011;11238;48.730;11.566;2023-02-11T04:28:04;63.30;;;28.98;;
22144;SDS011;11238;48.730;11.566;2023-02-11T04:30:29;65.75;;;30.27;;
22144;SDS011;11238;48.730;11.566;2023-02-11T04:32:56;57.42;;;29.23;;
22144;SDS011;11238;48.730;11.566;2023-02-11T04:35:23;65.43;;;30.40;;
22144;SDS011;11238;48.730;11.566;2023-02-11T04:37:49;63.95;;;30.58;;
22144;SDS011;11238;48.730;11.566;2023-02-11T04:40:15;66.18;;;30.38;;
22144;SDS011;11238;48.730;11.566;2023-02-11T04:42:41;64.28;;;31.10;;
22144;SDS011;11238;48.730;11.566;2023-02-11T04:45:06;61.28;;;29.42;;
22144;SDS011;11238;48.730;11.566;2023-02-11T04:47:33;64.32;;;30.90;;
22144;SDS011;11238;48.730;11.566;2023-02-11T04:49:59;64.22;;;28.40;;
22144;SDS011;11238;48.730;11.566;2023-02-11T04:52:24;61.58;;;29.92;;
22144;SDS011;11238;48.730;11.566;2023-02-11T04:54:50;64.22;;;30.25;;
22144;SDS011;11238;48.730;11.566;2023-02-11T04:57:16;62.65;;;30.67;;
22144;SDS011;11238;48.730;11.566;2023-02-11T04:59:42;64.57;;;29.20;;
22144;SDS011;11238;48.730;11.566;2023-02-11T05:02:08;69.22;;;32.17;;
22144;SDS011;11238;48.730;11.566;2023-02-11T05:04:34;68.47;;;32.03;;
22144;SDS011;11238;48.730;11.566;2023-02-11T05:06:59;61.15;;;29.98;;
22144;SDS011;11238;48.730;11.566;2023-02-11T05:09:25;63.53;;;30.55;;
22144;SDS011;11238;48.730;11.566;2023-02-11T05:11:51;58.63;;;30.38;;
22144;SDS011;11238;48.730;11.566;2023-02-11T05:14:17;68.93;;;30.38;;
22144;SDS011;11238;48.730;11.566;2023-02-11T05:16:43;68.72;;;32.53;;
22144;SDS011;11238;48.730;11.566;2023-02-11T05:19:10;64.20;;;30.75;;
22144;SDS011;11238;48.730;11.566;2023-02-11T05:21:35;61.10;;;29.95;;
22144;SDS011;11238;48.730;11.566;2023-02-11T05:24:01;60.05;;;30.13;;
22144;SDS011;11238;48.730;11.566;2023-02-11T05:26:27;64.45;;;30.67;;
22144;SDS011;11238;48.730;11.566;2023-02-11T05:28:53;63.08;;;31.65;;
22144;SDS011;11238;48.730;11.566;2023-02-11T05:31:19;65.80;;;31.20;;
22144;SDS011;11238;48.730;11.566;2023-02-11T05:33:44;61.70;;;30.83;;
22144;SDS011;11238;48.730;11.566;2023-02-11T05:36:11;58.45;;;29.23;;
22144;SDS011;11238;48.730;11.566;2023-02-11T05:38:37;63.17;;;31.95;;
22144;SDS011;11238;48.730;11.566;2023-02-11T05:41:04;67.18;;;30.73;;
22144;SDS011;11238;48.730;11.566;2023-02-11T05:43:30;65.88;;;32.25;;
22144;SDS011;11238;48.730;11.566;2023-02-11T05:45:58;62.58;;;31.50;;
22144;SDS011;11238;48.730;11.566;2023-02-11T05:48:25;67.65;;;32.50;;
22144;SDS011;11238;48.730;11.566;2023-02-11T05:50:50;64.88;;;32.35;;
22144;SDS011;11238;48.730;11.566;2023-02-11T05:53:16;63.45;;;31.27;;
22144;SDS011;11238;48.730;11.566;2023-02-11T05:55:42;66.22;;;32.17;;
22144;SDS011;11238;48.730;11.566;2023-02-11T05:58:08;71.82;;;33.17;;
22144;SDS011;11238;48.730;11.566;2023-02-11T06:00:34;60.67;;;31.02;;
22144;SDS011;11238;48.730;11.566;2023-02-11T06:03:01;58.55;;;29.60;;
22144;SDS011;11238;48.730;11.566;2023-02-11T06:05:28;55.63;;;28.02;;
22144;SDS011;11238;48.730;11.566;2023-02-11T06:07:54;66.30;;;30.83;;
22144;SDS011;11238;48.730;11.566;2023-02-11T06:10:20;63.42;;;32.42;;
22144;SDS011;11238;48.730;11.566;2023-02-11T06:13:08;64.70;;;30.33;;
22144;SDS011;11238;48.730;11.566;2023-02-11T06:15:34;65.10;;;32.58;;
22144;SDS011;11238;48.730;11.566;2023-02-11T06:17:59;61.95;;;30.98;;
22144;SDS011;11238;48.730;11.566;2023-02-11T06:20:26;59.45;;;30.17;;
22144;SDS011;11238;48.730;11.566;2023-02-11T06:22:52;59.40;;;30.67;;
22144;SDS011;11238;48.730;11.566;2023-02-11T06:25:18;63.83;;;32.88;;
22144;SDS011;11238;48.730;11.566;2023-02-11T06:27:46;58.90;;;32.13;;
22144;SDS011;11238;48.730;11.566;2023-02-11T06:30:12;57.25;;;30.02;;
22144;SDS011;11238;48.730;11.566;2023-02-11T06:32:39;57.28;;;28.95;;
22144;SDS011;11238;48.730;11.566;2023-02-11T06:35:04;60.22;;;30.35;;
22144;SDS011;11238;48.730;11.566;2023-02-11T06:37:32;63.33;;;31.20;;
22144;SDS011;11238;48.730;11.566;2023-02-11T06:39:58;61.65;;;31.27;;
22144;SDS011;11238;48.730;11.566;2023-02-11T06:42:24;64.45;;;32.47;;
22144;SDS011;11238;48.730;11.566;2023-02-11T06:44:50;65.95;;;33.75;;
22144;SDS011;11238;48.730;11.566;2023-02-11T06:47:16;63.28;;;32.45;;
22144;SDS011;11238;48.730;11.566;2023-02-11T06:49:41;68.07;;;32.15;;
22144;SDS011;11238;48.730;11.566;2023-02-11T06:52:07;60.33;;;32.28;;
22144;SDS011;11238;48.730;11.566;2023-02-11T06:54:32;64.32;;;32.97;;
22144;SDS011;11238;48.730;11.566;2023-02-11T06:56:58;58.92;;;31.08;;
22144;SDS011;11238;48.730;11.566;2023-02-11T06:59:24;61.90;;;30.70;;
22144;SDS011;11238;48.730;11.566;2023-02-11T07:01:49;63.03;;;30.90;;
22144;SDS011;11238;48.730;11.566;2023-02-11T07:07:37;61.78;;;30.92;;
22144;SDS011;11238;48.730;11.566;2023-02-11T07:10:02;57.75;;;29.67;;
22144;SDS011;11238;48.730;11.566;2023-02-11T07:12:30;64.32;;;30.73;;
22144;SDS011;11238;48.730;11.566;2023-02-11T07:14:56;64.85;;;31.70;;
22144;SDS011;11238;48.730;11.566;2023-02-11T07:17:22;55.80;;;29.42;;
22144;SDS011;11238;48.730;11.566;2023-02-11T07:19:48;58.53;;;30.42;;
22144;SDS011;11238;48.730;11.566;2023-02-11T07:22:14;57.20;;;30.10;;
22144;SDS011;11238;48.730;11.566;2023-02-11T07:24:40;57.47;;;31.02;;
22144;SDS011;11238;48.730;11.566;2023-02-11T07:27:06;66.03;;;32.63;;
22144;SDS011;11238;48.730;11.566;2023-02-11T07:29:33;65.45;;;34.03;;
22144;SDS011;11238;48.730;11.566;2023-02-11T07:31:59;63.30;;;32.72;;
22144;SDS011;11238;48.730;11.566;2023-02-11T07:34:24;71.05;;;34.78;;
22144;SDS011;11238;48.730;11.566;2023-02-11T07:36:50;65.95;;;33.45;;
22144;SDS011;11238;48.730;11.566;2023-02-11T07:39:16;69.80;;;34.75;;
22144;SDS011;11238;48.730;11.566;2023-02-11T07:41:42;65.00;;;34.05;;
22144;SDS011;11238;48.730;11.566;2023-02-11T07:44:12;73.38;;;37.75;;
22144;SDS011;11238;48.730;11.566;2023-02-11T07:46:37;72.25;;;37.97;;
22144;SDS011;11238;48.730;11.566;2023-02-11T07:49:07;68.80;;;37.15;;
22144;SDS011;11238;48.730;11.566;2023-02-11T07:51:33;72.05;;;39.22;;
22144;SDS011;11238;48.730;11.566;2023-02-11T07:53:59;75.35;;;39.35;;
22144;SDS011;11238;48.730;11.566;2023-02-11T07:56:26;69.47;;;37.50;;
22144;SDS011;11238;48.730;11.566;2023-02-11T07:58:53;69.50;;;35.95;;
22144;SDS011;11238;48.730;11.566;2023-02-11T08:01:21;68.45;;;35.28;;
22144;SDS011;11238;48.730;11.566;2023-02-11T08:03:51;68.47;;;34.83;;
22144;SDS011;11238;48.730;11.566;2023-02-11T08:06:18;67.60;;;33.80;;
22144;SDS011;11238;48.730;11.566;2023-02-11T08:08:45;60.85;;;32.15;;
22144;SDS011;11238;48.730;11.566;2023-02-11T08:11:12;61.97;;;32.58;;
22144;SDS011;11238;48.730;11.566;2023-02-11T08:13:40;58.58;;;31.58;;
22144;SDS011;11238;48.730;11.566;2023-02-11T08:16:07;62.97;;;31.80;;
22144;SDS011;11238;48.730;11.566;2023-02-11T08:18:33;62.97;;;33.22;;
22144;SDS011;11238;48.730;11.566;2023-02-11T08:21:06;63.60;;;32.97;;
22144;SDS011;11238;48.730;11.566;2023-02-11T08:23:35;64.10;;;33.90;;
22144;SDS011;11238;48.730;11.566;2023-02-11T08:26:04;72.78;;;36.00;;
22144;SDS011;11238;48.730;11.566;2023-02-11T08:28:33;70.25;;;35.65;;
22144;SDS011;11238;48.730;11.566;2023-02-11T08:31:07;67.40;;;34.58;;
22144;SDS011;11238;48.730;11.566;2023-02-11T08:33:36;63.80;;;34.72;;
22144;SDS011;11238;48.730;11.566;2023-02-11T08:36:09;65.90;;;34.67;;
22144;SDS011;11238;48.730;11.566;2023-02-11T08:38:40;62.63;;;33.95;;
22144;SDS011;11238;48.730;11.566;2023-02-11T08:41:09;62.55;;;33.40;;
22144;SDS011;11238;48.730;11.566;2023-02-11T08:43:52;61.05;;;32.75;;
22144;SDS011;11238;48.730;11.566;2023-02-11T08:46:19;59.08;;;32.65;;
22144;SDS011;11238;48.730;11.566;2023-02-11T08:51:53;59.78;;;31.70;;
22144;SDS011;11238;48.730;11.566;2023-02-11T08:54:20;57.25;;;32.40;;
22144;SDS011;11238;48.730;11.566;2023-02-11T08:56:49;58.65;;;31.58;;
22144;SDS011;11238;48.730;11.566;2023-02-11T08:59:18;59.17;;;31.52;;
22144;SDS011;11238;48.730;11.566;2023-02-11T09:01:58;60.60;;;32.78;;
22144;SDS011;11238;48.730;11.566;2023-02-11T09:04:24;57.60;;;31.70;;
22144;SDS011;11238;48.730;11.566;2023-02-11T09:06:50;57.03;;;30.38;;
22144;SDS011;11238;48.730;11.566;2023-02-11T09:09:16;57.15;;;30.67;;
22144;SDS011;11238;48.730;11.566;2023-02-11T09:11:45;57.22;;;30.27;;
22144;SDS011;11238;48.730;11.566;2023-02-11T09:14:17;50.03;;;28.83;;
22144;SDS011;11238;48.730;11.566;2023-02-11T09:16:44;55.77;;;29.77;;
22144;SDS011;11238;48.730;11.566;2023-02-11T09:19:10;53.97;;;30.30;;
22144;SDS011;11238;48.730;11.566;2023-02-11T09:21:36;52.20;;;29.42;;
22144;SDS011;11238;48.730;11.566;2023-02-11T09:24:02;51.90;;;29.48;;
22144;SDS011;11238;48.730;11.566;2023-02-11T09:26:31;53.75;;;29.38;;
22144;SDS011;11238;48.730;11.566;2023-02-11T09:29:03;51.63;;;27.17;;
22144;SDS011;11238;48.730;11.566;2023-02-11T09:31:30;44.75;;;25.55;;
22144;SDS011;11238;48.730;11.566;2023-02-11T09:33:58;48.42;;;26.35;;
22144;SDS011;11238;48.730;11.566;2023-02-11T09:36:31;42.92;;;25.33;;
22144;SDS011;11238;48.730;11.566;2023-02-11T09:39:02;45.90;;;25.27;;
22144;SDS011;11238;48.730;11.566;2023-02-11T09:41:53;42.88;;;23.15;;
22144;SDS011;11238;48.730;11.566;2023-02-11T09:44:52;42.97;;;24.00;;
22144;SDS011;11238;48.730;11.566;2023-02-11T09:47:25;47.30;;;25.35;;
22144;SDS011;11238;48.730;11.566;2023-02-11T09:50:02;45.83;;;24.90;;
22144;SDS011;11238;48.730;11.566;2023-02-11T09:55:37;37.03;;;22.35;;
22144;SDS011;11238;48.730;11.566;2023-02-11T09:58:11;36.40;;;21.85;;
22144;SDS011;11238;48.730;11.566;2023-02-11T10:00:46;39.25;;;22.52;;
22144;SDS011;11238;48.730;11.566;2023-02-11T10:06:13;42.35;;;22.85;;
22144;SDS011;11238;48.730;11.566;2023-02-11T10:11:45;37.92;;;22.35;;
22144;SDS011;11238;48.730;11.566;2023-02-11T10:17:33;40.97;;;21.80;;
22144;SDS011;11238;48.730;11.566;2023-02-11T10:22:40;41.13;;;23.23;;
22144;SDS011;11238;48.730;11.566;2023-02-11T10:25:22;38.63;;;22.55;;
22144;SDS011;11238;48.730;11.566;2023-02-11T10:30:42;41.97;;;22.77;;
22144;SDS011;11238;48.730;11.566;2023-02-11T10:36:09;39.08;;;22.38;;
22144;SDS011;11238;48.730;11.566;2023-02-11T10:38:36;38.17;;;23.58;;
22144;SDS011;11238;48.730;11.566;2023-02-11T10:41:03;40.75;;;23.25;;
22144;SDS011;11238;48.730;11.566;2023-02-11T10:43:29;36.58;;;22.10;;
22144;SDS011;11238;48.730;11.566;2023-02-11T10:45:56;38.65;;;22.48;;
22144;SDS011;11238;48.730;11.566;2023-02-11T10:51:17;41.25;;;23.45;;
22144;SDS011;11238;48.730;11.566;2023-02-11T10:56:30;41.75;;;24.05;;
22144;SDS011;11238;48.730;11.566;2023-02-11T10:59:01;39.95;;;24.17;;
22144;SDS011;11238;48.730;11.566;2023-02-11T11:09:54;40.92;;;21.92;;
22144;SDS011;11238;48.730;11.566;2023-02-11T11:15:18;35.90;;;22.35;;
22144;SDS011;11238;48.730;11.566;2023-02-11T11:17:47;34.63;;;21.80;;
22144;SDS011;11238;48.730;11.566;2023-02-11T11:20:19;37.92;;;21.98;;
22144;SDS011;11238;48.730;11.566;2023-02-11T11:22:52;35.70;;;21.70;;
22144;SDS011;11238;48.730;11.566;2023-02-11T11:25:40;39.00;;;23.17;;
22144;SDS011;11238;48.730;11.566;2023-02-11T11:28:18;37.83;;;22.23;;
22144;SDS011;11238;48.730;11.566;2023-02-11T11:30:52;33.30;;;21.02;;
22144;SDS011;11238;48.730;11.566;2023-02-11T11:33:22;32.72;;;21.13;;
22144;SDS011;11238;48.730;11.566;2023-02-11T11:38:21;33.58;;;19.75;;
22144;SDS011;11238;48.730;11.566;2023-02-11T11:40:47;34.13;;;20.55;;
22144;SDS011;11238;48.730;11.566;2023-02-11T11:43:55;37.13;;;21.95;;
22144;SDS011;11238;48.730;11.566;2023-02-11T11:46:34;34.95;;;20.45;;
22144;SDS011;11238;48.730;11.566;2023-02-11T11:49:05;31.48;;;19.90;;
22144;SDS011;11238;48.730;11.566;2023-02-11T11:51:57;31.63;;;19.92;;
22144;SDS011;11238;48.730;11.566;2023-02-11T11:54:33;32.95;;;19.42;;
22144;SDS011;11238;48.730;11.566;2023-02-11T11:57:00;32.10;;;19.67;;
22144;SDS011;11238;48.730;11.566;2023-02-11T11:59:35;32.83;;;19.33;;
22144;SDS011;11238;48.730;11.566;2023-02-11T12:18:38;26.15;;;15.07;;
22144;SDS011;11238;48.730;11.566;2023-02-11T12:29:54;22.80;;;14.63;;
22144;SDS011;11238;48.730;11.566;2023-02-11T12:32:35;20.60;;;14.27;;
22144;SDS011;11238;48.730;11.566;2023-02-11T12:35:19;23.17;;;15.35;;
22144;SDS011;11238;48.730;11.566;2023-02-11T12:38:19;27.98;;;15.95;;
22144;SDS011;11238;48.730;11.566;2023-02-11T12:44:31;22.58;;;15.73;;
22144;SDS011;11238;48.730;11.566;2023-02-11T12:47:17;23.90;;;14.90;;
22144;SDS011;11238;48.730;11.566;2023-02-11T12:52:43;25.45;;;15.98;;
22144;SDS011;11238;48.730;11.566;2023-02-11T12:55:25;23.77;;;15.50;;
22144;SDS011;11238;48.730;11.566;2023-02-11T12:57:55;21.00;;;14.23;;
22144;SDS011;11238;48.730;11.566;2023-02-11T13:03:18;21.63;;;14.27;;
22144;SDS011;11238;48.730;11.566;2023-02-11T13:05:53;24.05;;;15.20;;
22144;SDS011;11238;48.730;11.566;2023-02-11T13:08:36;23.95;;;14.80;;
22144;SDS011;11238;48.730;11.566;2023-02-11T13:11:10;24.33;;;15.55;;
22144;SDS011;11238;48.730;11.566;2023-02-11T13:14:03;22.45;;;15.40;;
22144;SDS011;11238;48.730;11.566;2023-02-11T13:24:18;25.23;;;16.38;;
22144;SDS011;11238;48.730;11.566;2023-02-11T13:27:14;26.88;;;15.70;;
22144;SDS011;11238;48.730;11.566;2023-02-11T13:37:50;24.23;;;15.60;;
22144;SDS011;11238;48.730;11.566;2023-02-11T13:40:20;25.65;;;16.63;;
22144;SDS011;11238;48.730;11.566;2023-02-11T13:42:49;24.88;;;16.17;;
22144;SDS011;11238;48.730;11.566;2023-02-11T13:45:17;24.63;;;15.93;;
22144;SDS011;11238;48.730;11.566;2023-02-11T13:47:55;25.00;;;16.33;;
22144;SDS011;11238;48.730;11.566;2023-02-11T13:50:27;27.75;;;17.50;;
22144;SDS011;11238;48.730;11.566;2023-02-11T13:53:01;26.80;;;15.90;;
22144;SDS011;11238;48.730;11.566;2023-02-11T13:55:29;25.13;;;16.48;;
22144;SDS011;11238;48.730;11.566;2023-02-11T14:03:22;24.70;;;15.77;;
22144;SDS011;11238;48.730;11.566;2023-02-11T14:06:14;26.05;;;17.13;;
22144;SDS011;11238;48.730;11.566;2023-02-11T14:15:38;23.55;;;15.57;;
22144;SDS011;11238;48.730;11.566;2023-02-11T14:29:17;23.35;;;15.60;;
22144;SDS011;11238;48.730;11.566;2023-02-11T14:40:31;25.98;;;16.48;;
22144;SDS011;11238;48.730;11.566;2023-02-11T14:43:11;25.60;;;16.10;;
22144;SDS011;11238;48.730;11.566;2023-02-11T14:45:41;24.48;;;16.83;;
22144;SDS011;11238;48.730;11.566;2023-02-11T14:48:33;26.58;;;17.00;;
22144;SDS011;11238;48.730;11.566;2023-02-11T14:51:03;28.60;;;17.27;;
22144;SDS011;11238;48.730;11.566;2023-02-11T14:53:35;27.95;;;16.27;;
22144;SDS011;11238;48.730;11.566;2023-02-11T14:56:37;26.65;;;16.08;;
22144;SDS011;11238;48.730;11.566;2023-02-11T14:58:59;26.65;;;16.27;;
22144;SDS011;11238;48.730;11.566;2023-02-11T15:01:33;25.20;;;16.73;;
22144;SDS011;11238;48.730;11.566;2023-02-11T15:04:29;23.13;;;15.13;;
22144;SDS011;11238;48.730;11.566;2023-02-11T15:06:57;23.15;;;15.15;;
22144;SDS011;11238;48.730;11.566;2023-02-11T15:13:15;27.52;;;15.90;;
22144;SDS011;11238;48.730;11.566;2023-02-11T15:15:44;23.05;;;15.02;;
22144;SDS011;11238;48.730;11.566;2023-02-11T15:18:17;23.05;;;14.73;;
22144;SDS011;11238;48.730;11.566;2023-02-11T15:20:47;22.85;;;15.35;;
22144;SDS011;11238;48.730;11.566;2023-02-11T15:23:17;20.95;;;14.60;;
22144;SDS011;11238;48.730;11.566;2023-02-11T15:25:53;25.50;;;15.07;;
22144;SDS011;11238;48.730;11.566;2023-02-11T15:28:23;26.50;;;15.98;;
22144;SDS011;11238;48.730;11.566;2023-02-11T15:30:57;24.88;;;15.80;;
22144;SDS011;11238;48.730;11.566;2023-02-11T15:33:28;25.85;;;16.38;;
22144;SDS011;11238;48.730;11.566;2023-02-11T15:35:57;23.80;;;15.98;;
22144;SDS011;11238;48.730;11.566;2023-02-11T15:38:25;24.27;;;15.70;;
22144;SDS011;11238;48.730;11.566;2023-02-11T15:40:52;28.55;;;17.15;;
22144;SDS011;11238;48.730;11.566;2023-02-11T15:43:23;29.92;;;16.70;;
22144;SDS011;11238;48.730;11.566;2023-02-11T15:48:27;26.38;;;17.05;;
22144;SDS011;11238;48.730;11.566;2023-02-11T15:51:13;26.65;;;17.30;;
22144;SDS011;11238;48.730;11.566;2023-02-11T15:53:51;26.90;;;17.10;;
22144;SDS011;11238;48.730;11.566;2023-02-11T15:56:30;25.08;;;17.17;;
22144;SDS011;11238;48.730;11.566;2023-02-11T15:59:08;28.33;;;18.50;;
22144;SDS011;11238;48.730;11.566;2023-02-11T16:01:43;28.25;;;17.73;;
22144;SDS011;11238;48.730;11.566;2023-02-11T16:04:14;29.73;;;17.58;;
22144;SDS011;11238;48.730;11.566;2023-02-11T16:06:43;29.55;;;17.73;;
22144;SDS011;11238;48.730;11.566;2023-02-11T16:17:05;29.85;;;19.08;;
22144;SDS011;11238;48.730;11.566;2023-02-11T16:19:33;29.75;;;18.30;;
22144;SDS011;11238;48.730;11.566;2023-02-11T16:22:01;25.35;;;17.33;;
22144;SDS011;11238;48.730;11.566;2023-02-11T16:24:33;27.42;;;17.58;;
22144;SDS011;11238;48.730;11.566;2023-02-11T16:27:04;27.73;;;17.77;;
22144;SDS011;11238;48.730;11.566;2023-02-11T16:29:54;28.42;;;17.90;;
22144;SDS011;11238;48.730;11.566;2023-02-11T16:34:52;27.73;;;18.20;;
22144;SDS011;11238;48.730;11.566;2023-02-11T16:37:21;28.58;;;16.85;;
22144;SDS011;11238;48.730;11.566;2023-02-11T16:39:48;28.33;;;17.00;;
22144;SDS011;11238;48.730;11.566;2023-02-11T16:42:17;32.53;;;18.38;;
22144;SDS011;11238;48.730;11.566;2023-02-11T16:44:43;28.00;;;18.52;;
22144;SDS011;11238;48.730;11.566;2023-02-11T16:47:14;26.90;;;18.02;;
22144;SDS011;11238;48.730;11.566;2023-02-11T16:49:45;27.63;;;18.08;;
22144;SDS011;11238;48.730;11.566;2023-02-11T16:52:12;29.83;;;18.55;;
22144;SDS011;11238;48.730;11.566;2023-02-11T16:54:39;31.00;;;18.38;;
22144;SDS011;11238;48.730;11.566;2023-02-11T16:57:12;30.20;;;19.10;;
22144;SDS011;11238;48.730;11.566;2023-02-11T16:59:40;29.95;;;18.88;;
22144;SDS011;11238;48.730;11.566;2023-02-11T17:02:11;28.60;;;18.98;;
22144;SDS011;11238;48.730;11.566;2023-02-11T17:04:49;32.10;;;18.63;;
22144;SDS011;11238;48.730;11.566;2023-02-11T17:07:17;27.80;;;18.27;;
22144;SDS011;11238;48.730;11.566;2023-02-11T17:09:43;32.20;;;18.25;;
22144;SDS011;11238;48.730;11.566;2023-02-11T17:12:09;27.42;;;18.75;;
22144;SDS011;11238;48.730;11.566;2023-02-11T17:14:34;27.88;;;18.13;;
22144;SDS011;11238;48.730;11.566;2023-02-11T17:17:01;31.85;;;19.25;;
22144;SDS011;11238;48.730;11.566;2023-02-11T17:19:26;29.38;;;18.98;;
22144;SDS011;11238;48.730;11.566;2023-02-11T17:21:52;27.15;;;18.92;;
22144;SDS011;11238;48.730;11.566;2023-02-11T17:24:18;26.70;;;17.58;;
22144;SDS011;11238;48.730;11.566;2023-02-11T17:26:46;28.52;;;17.92;;
22144;SDS011;11238;48.730;11.566;2023-02-11T17:29:14;27.23;;;17.63;;
22144;SDS011;11238;48.730;11.566;2023-02-11T17:31:43;30.08;;;18.27;;